createdAt,value
2022-10-30T00:00:47.003Z,98220.16
2022-10-30T00:03:15.210Z,98218.72
2022-10-30T00:05:47.837Z,98215.25
2022-10-30T00:08:17.308Z,98222.72
2022-10-30T00:10:44.387Z,98222.72
2022-10-30T00:13:11.365Z,98222.59
2022-10-30T00:15:38.053Z,98226.00
2022-10-30T00:18:05.209Z,98236.38
2022-10-30T00:20:32.312Z,98246.03
2022-10-30T00:22:59.157Z,98237.72
2022-10-30T00:25:25.954Z,98240.38
2022-10-30T00:27:52.551Z,98238.22
2022-10-30T00:30:19.145Z,98241.00
2022-10-30T00:32:45.966Z,98238.81
2022-10-30T00:35:12.649Z,98236.75
2022-10-30T00:37:39.505Z,98240.16
2022-10-30T00:40:07.534Z,98235.19
2022-10-30T00:42:34.512Z,98233.75
2022-10-30T00:45:01.978Z,98225.44
2022-10-30T00:47:36.100Z,98224.00
2022-10-30T00:50:11.336Z,98221.22
2022-10-30T00:52:44.756Z,98214.84
2022-10-30T00:55:19.016Z,98217.63
2022-10-30T00:57:47.465Z,98215.47
2022-10-30T01:00:15.358Z,98212.69
2022-10-30T01:02:43.552Z,98216.78
2022-10-30T01:05:14.545Z,98211.84
2022-10-30T01:07:41.197Z,98209.78
2022-10-30T01:10:08.886Z,98207.66
2022-10-30T01:12:35.685Z,98203.41
2022-10-30T01:15:02.622Z,98204.16
2022-10-30T01:18:02.869Z,98206.94
2022-10-30T01:21:01.766Z,98199.19
2022-10-30T01:24:20.565Z,98196.31
2022-10-30T01:27:09.031Z,98190.03
2022-10-30T01:30:04.524Z,98183.75
2022-10-30T01:33:07.597Z,98181.59
2022-10-30T01:35:50.742Z,98180.16
2022-10-30T01:38:23.807Z,98183.53
2022-10-30T01:40:50.569Z,98183.53
2022-10-30T01:43:17.495Z,98176.53
2022-10-30T01:46:22.893Z,98189.69
2022-10-30T01:49:16.160Z,98181.97
2022-10-30T01:52:17.965Z,98182.59
2022-10-30T01:54:59.346Z,98188.13
2022-10-30T01:57:58.299Z,98180.44
2022-10-30T02:00:25.925Z,98181.03
2022-10-30T02:02:52.713Z,98183.09
2022-10-30T02:05:43.997Z,98187.91
2022-10-30T02:08:10.896Z,98186.47
2022-10-30T02:10:38.920Z,98175.97
2022-10-30T02:13:05.752Z,98183.59
2022-10-30T02:15:32.770Z,98188.41
2022-10-30T02:17:59.973Z,98180.69
2022-10-30T02:20:27.224Z,98174.44
2022-10-30T02:22:58.012Z,98179.97
2022-10-30T02:25:26.131Z,98186.13
2022-10-30T02:27:52.774Z,98183.25
2022-10-30T02:30:19.360Z,98187.47
2022-10-30T02:32:46.016Z,98183.97
2022-10-30T02:35:12.730Z,98165.88
2022-10-30T02:37:39.936Z,98172.78
2022-10-30T02:40:08.399Z,98172.06
2022-10-30T02:42:35.622Z,98164.31
2022-10-30T02:45:03.068Z,98157.34
2022-10-30T02:47:29.820Z,98154.56
2022-10-30T02:49:56.786Z,98157.97
2022-10-30T02:52:23.365Z,98160.75
2022-10-30T02:54:49.947Z,98162.75
2022-10-30T02:57:16.543Z,98171.09
2022-10-30T02:59:43.309Z,98169.66
2022-10-30T03:02:10.156Z,98161.94
2022-10-30T03:04:36.812Z,98161.94
2022-10-30T03:07:03.388Z,98167.50
2022-10-30T03:09:29.964Z,98170.88
2022-10-30T03:11:56.835Z,98159.06
2022-10-30T03:14:23.422Z,98170.16
2022-10-30T03:16:52.491Z,98163.16
2022-10-30T03:19:19.699Z,98169.44
2022-10-30T03:21:46.957Z,98168.00
2022-10-30T03:24:13.868Z,98166.56
2022-10-30T03:26:40.920Z,98163.78
2022-10-30T03:29:07.535Z,98163.03
2022-10-30T03:31:34.120Z,98164.38
2022-10-30T03:34:00.695Z,98165.72
2022-10-30T03:36:27.596Z,98171.97
2022-10-30T03:38:54.206Z,98165.00
2022-10-30T03:41:20.824Z,98162.81
2022-10-30T03:43:47.400Z,98168.38
2022-10-30T03:46:13.958Z,98175.97
2022-10-30T03:48:40.726Z,98168.97
2022-10-30T03:51:07.528Z,98158.47
2022-10-30T03:53:34.873Z,98169.56
2022-10-30T03:56:04.564Z,98171.63
2022-10-30T03:58:31.348Z,98163.94
2022-10-30T04:01:06.063Z,98164.66
2022-10-30T04:03:33.240Z,98163.94
2022-10-30T04:05:59.838Z,98168.03
2022-10-30T04:08:26.608Z,98166.56
2022-10-30T04:10:53.253Z,98162.38
2022-10-30T04:13:22.882Z,98160.22
2022-10-30T04:15:56.210Z,98160.94
2022-10-30T04:18:24.245Z,98162.25
2022-10-30T04:20:50.821Z,98152.50
2022-10-30T04:23:19.751Z,98157.31
2022-10-30T04:25:46.561Z,98155.88
2022-10-30T04:28:13.386Z,98159.38
2022-10-30T04:30:40.612Z,98152.41
2022-10-30T04:33:10.629Z,98153.72
2022-10-30T04:35:37.744Z,98150.94
2022-10-30T04:38:07.074Z,98140.47
2022-10-30T04:40:35.910Z,98143.97
2022-10-30T04:43:05.818Z,98141.19
2022-10-30T04:45:32.425Z,98143.97
2022-10-30T04:48:18.572Z,98137.69
2022-10-30T04:50:45.924Z,98142.53
2022-10-30T04:53:19.402Z,98141.06
2022-10-30T04:55:46.002Z,98139.63
2022-10-30T04:58:13.398Z,98141.53
2022-10-30T05:00:40.178Z,98133.16
2022-10-30T05:03:06.816Z,98142.06
2022-10-30T05:05:33.597Z,98128.00
2022-10-30T05:08:00.585Z,98127.13
2022-10-30T05:10:27.586Z,98135.88
2022-10-30T05:12:54.486Z,98129.34
2022-10-30T05:15:21.522Z,98135.94
2022-10-30T05:17:51.980Z,98132.16
2022-10-30T05:20:19.072Z,98133.94
2022-10-30T05:22:45.888Z,98136.31
2022-10-30T05:25:12.768Z,98133.84
2022-10-30T05:27:39.400Z,98133.47
2022-10-30T05:30:06.840Z,98134.38
2022-10-30T05:32:33.492Z,98133.25
2022-10-30T05:35:00.083Z,98134.78
2022-10-30T05:37:26.958Z,98141.91
2022-10-30T05:39:53.732Z,98148.88
2022-10-30T05:42:20.307Z,98144.06
2022-10-30T05:45:00.445Z,98142.00
2022-10-30T05:47:27.969Z,98149.00
2022-10-30T05:49:54.751Z,98146.94
2022-10-30T05:52:21.407Z,98146.94
2022-10-30T05:54:47.980Z,98158.03
2022-10-30T05:57:14.593Z,98158.75
2022-10-30T05:59:41.421Z,98152.50
2022-10-30T06:02:08.242Z,98151.78
2022-10-30T06:04:34.852Z,98143.44
2022-10-30T06:07:01.422Z,98144.88
2022-10-30T06:09:28.024Z,98149.13
2022-10-30T06:11:54.900Z,98145.00
2022-10-30T06:14:21.599Z,98153.41
2022-10-30T06:16:48.639Z,98154.88
2022-10-30T06:19:18.383Z,98155.59
2022-10-30T06:21:46.155Z,98154.88
2022-10-30T06:24:13.470Z,98161.13
2022-10-30T06:26:40.513Z,98159.78
2022-10-30T06:29:08.158Z,98161.13
2022-10-30T06:31:34.782Z,98152.81
2022-10-30T06:34:01.489Z,98154.88
2022-10-30T06:36:28.320Z,98163.91
2022-10-30T06:38:54.914Z,98161.13
2022-10-30T06:41:25.914Z,98152.09
2022-10-30T06:43:55.971Z,98154.88
2022-10-30T06:46:25.614Z,98155.59
2022-10-30T06:48:55.870Z,98157.66
2022-10-30T06:51:22.659Z,98160.50
2022-10-30T06:53:49.248Z,98162.06
2022-10-30T06:56:15.851Z,98156.63
2022-10-30T06:58:43.211Z,98158.06
2022-10-30T07:01:10.020Z,98160.91
2022-10-30T07:03:36.909Z,98160.91
2022-10-30T07:06:03.860Z,98158.16
2022-10-30T07:08:30.429Z,98160.84
2022-10-30T07:10:58.566Z,98158.06
2022-10-30T07:13:25.552Z,98161.44
2022-10-30T07:15:52.160Z,98163.50
2022-10-30T07:18:18.757Z,98160.13
2022-10-30T07:20:45.396Z,98169.16
2022-10-30T07:23:11.967Z,98165.03
2022-10-30T07:25:38.748Z,98172.78
2022-10-30T07:28:05.315Z,98178.53
2022-10-30T07:30:31.906Z,98175.97
2022-10-30T07:33:00.981Z,98178.44
2022-10-30T07:35:28.700Z,98182.78
2022-10-30T07:37:55.787Z,98182.25
2022-10-30T07:40:22.760Z,98185.25
2022-10-30T07:42:49.393Z,98179.69
2022-10-30T07:45:16.077Z,98177.75
2022-10-30T07:47:43.750Z,98166.63
2022-10-30T07:50:11.142Z,98167.84
2022-10-30T07:52:37.723Z,98170.53
2022-10-30T07:55:05.213Z,98166.31
2022-10-30T07:57:38.934Z,98163.41
2022-10-30T08:00:07.342Z,98169.59
2022-10-30T08:02:34.102Z,98161.91
2022-10-30T08:05:00.810Z,98168.78
2022-10-30T08:07:35.567Z,98158.28
2022-10-30T08:10:02.195Z,98161.06
2022-10-30T08:12:29.049Z,98170.22
2022-10-30T08:14:55.864Z,98164.75
2022-10-30T08:17:22.481Z,98165.59
2022-10-30T08:19:49.510Z,98166.75
2022-10-30T08:22:16.340Z,98166.38
2022-10-30T08:24:44.197Z,98169.13
2022-10-30T08:27:11.036Z,98159.06
2022-10-30T08:29:37.763Z,98158.97
2022-10-30T08:32:05.377Z,98163.72
2022-10-30T08:34:32.541Z,98163.34
2022-10-30T08:37:00.128Z,98167.75
2022-10-30T08:39:26.950Z,98162.38
2022-10-30T08:41:53.603Z,98165.47
2022-10-30T08:44:21.568Z,98159.50
2022-10-30T08:46:48.167Z,98157.53
2022-10-30T08:49:14.804Z,98157.84
2022-10-30T08:51:41.412Z,98156.69
2022-10-30T08:54:09.440Z,98150.00
2022-10-30T08:56:36.173Z,98142.47
2022-10-30T08:59:02.744Z,98146.06
2022-10-30T09:01:29.476Z,98144.00
2022-10-30T09:03:56.328Z,98144.13
2022-10-30T09:06:22.913Z,98136.38
2022-10-30T09:09:07.457Z,98140.50
2022-10-30T09:11:34.213Z,98133.53
2022-10-30T09:14:01.022Z,98134.13
2022-10-30T09:16:27.646Z,98131.28
2022-10-30T09:18:54.291Z,98133.34
2022-10-30T09:21:20.884Z,98134.75
2022-10-30T09:23:47.579Z,98140.31
2022-10-30T09:26:16.898Z,98138.25
2022-10-30T09:28:47.455Z,98142.38
2022-10-30T09:31:14.067Z,98141.75
2022-10-30T09:33:40.646Z,98143.94
2022-10-30T09:36:07.489Z,98136.19
2022-10-30T09:38:34.149Z,98140.44
2022-10-30T09:41:19.824Z,98137.66
2022-10-30T09:44:15.705Z,98142.47
2022-10-30T09:47:31.809Z,98138.25
2022-10-30T09:50:39.985Z,98134.13
2022-10-30T09:53:55.672Z,98137.47
2022-10-30T09:56:32.264Z,98135.66
2022-10-30T09:59:17.731Z,98132.31
2022-10-30T10:01:59.051Z,98137.75
2022-10-30T10:04:34.453Z,98125.50
2022-10-30T10:07:12.626Z,98130.94
2022-10-30T10:09:40.348Z,98133.22
2022-10-30T10:12:12.299Z,98131.28
2022-10-30T10:14:44.157Z,98128.19
2022-10-30T10:17:16.635Z,98127.09
2022-10-30T10:19:57.417Z,98122.53
2022-10-30T10:22:34.368Z,98122.16
2022-10-30T10:25:06.104Z,98118.66
2022-10-30T10:27:57.984Z,98119.00
2022-10-30T10:30:27.616Z,98115.41
2022-10-30T10:33:45.535Z,98110.94
2022-10-30T10:36:43.424Z,98109.38
2022-10-30T10:40:05.165Z,98106.50
2022-10-30T10:43:27.107Z,98108.06
2022-10-30T10:46:36.095Z,98103.97
2022-10-30T10:49:48.929Z,98105.19
2022-10-30T10:52:20.586Z,98097.50
2022-10-30T10:54:52.866Z,98096.78
2022-10-30T10:57:38.103Z,98095.31
2022-10-30T11:00:19.043Z,98101.31
2022-10-30T11:03:22.344Z,98086.78
2022-10-30T11:05:56.718Z,98091.44
2022-10-30T11:08:29.760Z,98089.44
2022-10-30T11:10:58.718Z,98088.69
2022-10-30T11:13:29.172Z,98093.63
2022-10-30T11:16:25.748Z,98085.19
2022-10-30T11:18:59.304Z,98085.91
2022-10-30T11:21:27.353Z,98076.44
2022-10-30T11:23:54.010Z,98080.19
2022-10-30T11:26:31.505Z,98078.72
2022-10-30T11:29:15.189Z,98073.59
2022-10-30T11:31:43.986Z,98074.34
2022-10-30T11:34:37.705Z,98071.03
2022-10-30T11:37:05.194Z,98068.63
2022-10-30T11:39:35.982Z,98062.50
2022-10-30T11:42:18.376Z,98062.69
2022-10-30T11:44:51.837Z,98065.38
2022-10-30T11:47:23.038Z,98056.75
2022-10-30T11:49:53.883Z,98059.34
2022-10-30T11:52:23.501Z,98057.81
2022-10-30T11:55:08.357Z,98058.28
2022-10-30T11:57:43.260Z,98050.47
2022-10-30T12:00:24.568Z,98050.28
2022-10-30T12:02:54.174Z,98050.66
2022-10-30T12:05:37.556Z,98043.38
2022-10-30T12:08:22.376Z,98043.69
2022-10-30T12:10:59.680Z,98036.91
2022-10-30T12:13:28.222Z,98034.31
2022-10-30T12:16:16.204Z,98033.69
2022-10-30T12:19:02.656Z,98035.13
2022-10-30T12:21:34.964Z,98028.97
2022-10-30T12:24:06.842Z,98023.47
2022-10-30T12:26:35.936Z,98023.47
2022-10-30T12:29:12.610Z,98015.88
2022-10-30T12:31:55.555Z,98016.59
2022-10-30T12:34:42.065Z,98014.53
2022-10-30T12:37:25.420Z,98016.69
2022-10-30T12:40:03.907Z,98012.56
2022-10-30T12:42:35.863Z,98008.47
2022-10-30T12:45:43.473Z,98011.94
2022-10-30T12:48:33.891Z,98013.38
2022-10-30T12:51:51.461Z,98010.72
2022-10-30T12:54:29.823Z,98013.50
2022-10-30T12:57:11.286Z,98011.44
2022-10-30T13:00:10.211Z,98006.59
2022-10-30T13:03:01.906Z,98007.31
2022-10-30T13:05:39.722Z,97998.88
2022-10-30T13:08:50.992Z,97996.81
2022-10-30T13:11:45.993Z,97993.31
2022-10-30T13:14:35.937Z,97989.81
2022-10-30T13:17:02.773Z,97989.81
2022-10-30T13:19:29.422Z,97997.44
2022-10-30T13:22:14.916Z,97988.38
2022-10-30T13:25:14.266Z,97988.38
2022-10-30T13:28:13.332Z,97989.00
2022-10-30T13:30:45.364Z,97991.16
2022-10-30T13:33:35.111Z,97989.72
2022-10-30T13:36:15.405Z,97977.19
2022-10-30T13:39:31.187Z,97979.97
2022-10-30T13:42:30.416Z,97975.72
2022-10-30T13:45:54.797Z,97985.41
2022-10-30T13:48:56.326Z,97986.31
2022-10-30T13:51:44.258Z,97977.56
2022-10-30T13:54:31.197Z,97976.41
2022-10-30T13:57:08.790Z,97977.22
2022-10-30T14:00:03.586Z,97974.63
2022-10-30T14:03:03.264Z,97978.94
2022-10-30T14:05:58.945Z,97974.91
2022-10-30T14:08:39.455Z,97972.31
2022-10-30T14:11:07.417Z,97969.59
2022-10-30T14:13:54.307Z,97973.91
2022-10-30T14:16:43.884Z,97971.25
2022-10-30T14:19:18.128Z,97969.88
2022-10-30T14:21:54.954Z,97969.34
2022-10-30T14:24:44.725Z,97965.22
2022-10-30T14:27:11.553Z,97965.31
2022-10-30T14:29:47.114Z,97966.03
2022-10-30T14:32:38.146Z,97965.44
2022-10-30T14:35:31.336Z,97960.59
2022-10-30T14:37:58.450Z,97971.78
2022-10-30T14:40:41.893Z,97971.16
2022-10-30T14:43:39.688Z,97966.31
2022-10-30T14:46:45.204Z,97964.25
2022-10-30T14:49:56.416Z,97969.19
2022-10-30T14:53:09.487Z,97967.13
2022-10-30T14:55:50.693Z,97962.91
2022-10-30T14:58:25.182Z,97957.97
2022-10-30T15:01:16.221Z,97957.97
2022-10-30T15:04:23.123Z,97955.09
2022-10-30T15:07:35.592Z,97941.84
2022-10-30T15:28:42.328Z,97947.28
2022-10-30T15:31:24.396Z,97941.84
2022-10-30T15:33:51.704Z,97941.19
2022-10-30T15:36:20.822Z,97944.78
2022-10-30T15:39:16.302Z,97944.78
2022-10-30T15:41:58.124Z,97955.28
2022-10-30T15:44:31.989Z,97947.66
2022-10-30T15:47:02.624Z,97949.09
2022-10-30T15:49:41.928Z,97946.31
2022-10-30T15:52:19.496Z,97946.22
2022-10-30T15:54:48.498Z,97950.19
2022-10-30T15:57:49.869Z,97954.38
2022-10-30T16:00:19.031Z,97953.84
2022-10-30T16:02:49.586Z,97958.03
2022-10-30T16:05:23.613Z,97955.63
2022-10-30T16:07:50.739Z,97953.16
2022-10-30T16:10:18.003Z,97948.53
2022-10-30T16:12:45.213Z,97947.13
2022-10-30T16:15:26.832Z,97953.94
2022-10-30T16:18:18.373Z,97950.78
2022-10-30T16:20:49.852Z,97957.97
2022-10-30T16:23:18.508Z,97958.78
2022-10-30T16:25:47.417Z,97959.59
2022-10-30T16:28:35.327Z,97956.28
2022-10-30T16:31:04.899Z,97957.00
2022-10-30T16:33:34.041Z,97959.19
2022-10-30T16:36:04.026Z,97955.03
2022-10-30T16:38:36.986Z,97956.41
2022-10-30T16:41:08.055Z,97967.53
2022-10-30T16:43:36.793Z,97961.84
2022-10-30T16:46:41.177Z,97963.91
2022-10-30T16:49:16.017Z,97964.53
2022-10-30T16:51:43.244Z,97970.72
2022-10-30T16:54:19.957Z,97964.44
2022-10-30T16:56:48.996Z,97966.41
2022-10-30T16:59:29.236Z,97962.81
2022-10-30T17:02:00.824Z,97971.16
2022-10-30T17:04:29.293Z,97966.84
2022-10-30T17:07:25.328Z,97964.06
2022-10-30T17:09:54.097Z,97966.03
2022-10-30T17:12:26.068Z,97965.97
2022-10-30T17:15:12.617Z,97970.06
2022-10-30T17:17:41.350Z,97972.78
2022-10-30T17:20:40.778Z,97976.16
2022-10-30T17:23:16.328Z,97976.16
2022-10-30T17:25:43.208Z,97985.13
2022-10-30T17:28:33.540Z,97985.75
2022-10-30T17:31:43.024Z,97979.41
2022-10-30T17:34:20.814Z,97991.84
2022-10-30T17:36:48.828Z,97994.63
2022-10-30T17:39:15.671Z,97991.84
2022-10-30T17:41:43.095Z,97990.41
2022-10-30T17:44:19.389Z,97992.47
2022-10-30T17:46:46.345Z,97996.59
2022-10-30T17:49:32.809Z,97988.16
2022-10-30T17:51:59.632Z,97983.97
2022-10-30T17:54:26.306Z,97991.59
2022-10-30T17:56:52.993Z,97989.41
2022-10-30T17:59:19.642Z,97986.56
2022-10-30T18:01:47.036Z,97983.06
2022-10-30T18:04:21.035Z,97984.31
2022-10-30T18:06:48.734Z,97991.81
2022-10-30T18:09:15.572Z,97991.75
2022-10-30T18:11:44.756Z,97984.13
2022-10-30T18:14:14.438Z,97984.00
2022-10-30T18:16:43.248Z,97988.03
2022-10-30T18:19:14.065Z,97986.59
2022-10-30T18:21:40.832Z,97992.16
2022-10-30T18:24:16.440Z,97987.25
2022-10-30T18:26:47.020Z,97992.06
2022-10-30T18:29:15.929Z,97996.19
2022-10-30T18:31:59.516Z,97989.81
2022-10-30T18:34:29.802Z,97994.66
2022-10-30T18:36:58.908Z,97996.00
2022-10-30T18:39:25.559Z,97997.34
2022-10-30T18:41:55.347Z,97995.88
2022-10-30T18:44:31.215Z,97999.31
2022-10-30T18:47:03.019Z,97997.88
2022-10-30T18:49:41.748Z,97994.28
2022-10-30T18:52:18.201Z,97999.00
2022-10-30T18:54:45.123Z,97996.88
2022-10-30T18:57:12.226Z,98002.31
2022-10-30T18:59:40.319Z,98000.88
2022-10-30T19:02:28.435Z,98003.56
2022-10-30T19:04:58.001Z,98006.25
2022-10-30T19:07:25.162Z,98005.53
2022-10-30T19:09:56.040Z,98009.03
2022-10-30T19:12:22.777Z,98005.41
2022-10-30T19:14:49.768Z,98012.44
2022-10-30T19:17:19.217Z,98014.56
2022-10-30T19:19:46.445Z,98013.34
2022-10-30T19:22:15.180Z,98011.47
2022-10-30T19:24:45.790Z,98013.00
2022-10-30T19:27:12.340Z,98005.50
2022-10-30T19:29:40.074Z,98013.19
2022-10-30T19:32:06.806Z,98007.09
2022-10-30T19:34:33.395Z,98005.75
2022-10-30T19:37:00.004Z,98001.75
2022-10-30T19:39:28.242Z,98009.47
2022-10-30T19:41:54.822Z,98007.59
2022-10-30T19:44:21.563Z,97998.81
2022-10-30T19:46:48.224Z,98002.50
2022-10-30T19:49:20.109Z,98004.75
2022-10-30T19:51:47.343Z,98001.53
2022-10-30T19:54:13.977Z,98001.72
2022-10-30T19:56:44.198Z,98009.53
2022-10-30T19:59:13.565Z,98012.47
2022-10-30T20:01:42.095Z,98007.75
2022-10-30T20:04:08.877Z,98006.50
2022-10-30T20:06:35.612Z,98017.78
2022-10-30T20:09:02.755Z,98008.81
2022-10-30T20:11:30.366Z,98013.13
2022-10-30T20:13:56.953Z,98011.81
2022-10-30T20:16:24.159Z,98013.22
2022-10-30T20:18:50.937Z,98020.25
2022-10-30T20:21:19.253Z,98018.91
2022-10-30T20:23:46.153Z,98024.47
2022-10-30T20:26:24.369Z,98022.31
2022-10-30T20:28:51.766Z,98025.72
2022-10-30T20:31:18.373Z,98031.28
2022-10-30T20:33:45.087Z,98029.22
2022-10-30T20:36:13.349Z,98036.31
2022-10-30T20:38:40.285Z,98037.75
2022-10-30T20:41:07.431Z,98032.19
2022-10-30T20:43:37.012Z,98035.69
2022-10-30T20:46:06.472Z,98028.06
2022-10-30T20:48:33.341Z,98038.47
2022-10-30T20:51:01.726Z,98036.41
2022-10-30T20:53:29.253Z,98035.78
2022-10-30T20:55:56.062Z,98039.91
2022-10-30T20:58:22.832Z,98040.63
2022-10-30T21:00:50.273Z,98049.06
2022-10-30T21:03:18.262Z,98047.72
2022-10-30T21:05:48.307Z,98051.19
2022-10-30T21:08:17.998Z,98049.16
2022-10-30T21:10:44.880Z,98045.75
2022-10-30T21:13:11.962Z,98049.25
2022-10-30T21:15:43.121Z,98049.25
2022-10-30T21:18:11.042Z,98054.19
2022-10-30T21:20:38.024Z,98052.13
2022-10-30T21:23:05.343Z,98057.69
2022-10-30T21:25:32.464Z,98052.75
2022-10-30T21:28:00.192Z,98053.44
2022-10-30T21:30:27.395Z,98049.97
2022-10-30T21:32:54.031Z,98059.66
2022-10-30T21:35:21.241Z,98054.72
2022-10-30T21:37:48.056Z,98051.94
2022-10-30T21:40:17.644Z,98055.44
2022-10-30T21:42:47.681Z,98059.56
2022-10-30T21:45:14.308Z,98056.06
2022-10-30T21:47:41.117Z,98056.69
2022-10-30T21:50:12.343Z,98058.75
2022-10-30T21:52:39.932Z,98056.59
2022-10-30T21:55:07.083Z,98059.38
2022-10-30T21:57:33.721Z,98057.94
2022-10-30T22:00:03.652Z,98053.72
2022-10-30T22:02:33.916Z,98065.56
2022-10-30T22:05:00.520Z,98050.84
2022-10-30T22:07:27.113Z,98052.91
2022-10-30T22:09:54.173Z,98056.31
2022-10-30T22:12:20.966Z,98059.09
2022-10-30T22:14:47.749Z,98056.31
2022-10-30T22:17:14.497Z,98058.97
2022-10-30T22:19:41.162Z,98054.13
2022-10-30T22:22:07.977Z,98055.47
2022-10-30T22:24:34.682Z,98051.28
2022-10-30T22:27:01.281Z,98057.53
2022-10-30T22:29:27.869Z,98055.38
2022-10-30T22:31:54.517Z,98057.44
2022-10-30T22:34:21.109Z,98056.72
2022-10-30T22:36:47.898Z,98056.00
2022-10-30T22:39:14.875Z,98058.06
2022-10-30T22:41:41.804Z,98066.31
2022-10-30T22:44:12.892Z,98065.72
2022-10-30T22:46:39.985Z,98063.53
2022-10-30T22:49:06.831Z,98062.75
2022-10-30T22:51:35.381Z,98068.31
2022-10-30T22:54:04.614Z,98064.78
2022-10-30T22:56:33.100Z,98068.91
2022-10-30T22:59:06.198Z,98068.91
2022-10-30T23:01:35.436Z,98078.59
2022-10-30T23:04:04.821Z,98081.38
2022-10-30T23:06:32.350Z,98082.72
2022-10-30T23:09:01.074Z,98080.56
2022-10-30T23:11:28.581Z,98079.84
2022-10-30T23:13:55.553Z,98076.34
2022-10-30T23:16:25.047Z,98079.13
2022-10-30T23:18:54.719Z,98081.19
2022-10-30T23:21:24.064Z,98079.72
2022-10-30T23:23:50.993Z,98076.16
2022-10-30T23:26:27.206Z,98078.22
2022-10-30T23:28:54.891Z,98077.47
2022-10-30T23:31:37.374Z,98074.63
2022-10-30T23:34:05.375Z,98080.19
2022-10-30T23:36:32.219Z,98079.34
2022-10-30T23:39:01.504Z,98080.00
2022-10-30T23:41:30.898Z,98077.81
2022-10-30T23:44:00.019Z,98072.91
2022-10-30T23:46:27.323Z,98070.00
2022-10-30T23:48:54.654Z,98073.41
2022-10-30T23:51:22.089Z,98069.94
2022-10-30T23:53:48.900Z,98080.34
2022-10-30T23:56:15.845Z,98084.44
2022-10-30T23:58:46.425Z,98083.00
